createdAt,value
2022-10-11T00:00:23.692Z,1012.68
2022-10-11T00:01:23.712Z,1012.74
2022-10-11T00:02:26.304Z,1012.77
2022-10-11T00:03:23.651Z,1012.81
2022-10-11T00:04:23.684Z,1012.85
2022-10-11T00:05:23.633Z,1012.87
2022-10-11T00:06:23.626Z,1012.87
2022-10-11T00:07:23.614Z,1012.86
2022-10-11T00:08:23.606Z,1012.88
2022-10-11T00:09:23.640Z,1012.90
2022-10-11T00:10:23.581Z,1012.86
2022-10-11T00:11:23.568Z,1012.91
2022-10-11T00:12:23.546Z,1012.93
2022-10-11T00:13:23.533Z,1012.94
2022-10-11T00:14:23.620Z,1012.99
2022-10-11T00:15:23.554Z,1012.98
2022-10-11T00:16:23.595Z,1013.00
2022-10-11T00:17:23.514Z,1013.00
2022-10-11T00:18:23.488Z,1013.01
2022-10-11T00:19:23.468Z,1013.05
2022-10-11T00:20:23.501Z,1013.03
2022-10-11T00:21:23.448Z,1013.08
2022-10-11T00:22:23.458Z,1013.03
2022-10-11T00:23:23.430Z,1013.06
2022-10-11T00:24:23.423Z,1013.05
2022-10-11T00:25:23.495Z,1013.05
2022-10-11T00:26:23.386Z,1013.08
2022-10-11T00:27:23.399Z,1013.07
2022-10-11T00:28:23.420Z,1013.10
2022-10-11T00:29:23.374Z,1013.12
2022-10-11T00:30:23.405Z,1013.16
2022-10-11T00:31:23.333Z,1013.20
2022-10-11T00:32:23.324Z,1013.24
2022-10-11T00:33:23.312Z,1013.24
2022-10-11T00:34:23.299Z,1013.30
2022-10-11T00:35:23.327Z,1013.28
2022-10-11T00:36:23.291Z,1013.30
2022-10-11T00:37:23.265Z,1013.30
2022-10-11T00:38:23.244Z,1013.30
2022-10-11T00:39:23.246Z,1013.28
2022-10-11T00:40:23.277Z,1013.34
2022-10-11T00:41:23.232Z,1013.33
2022-10-11T00:42:23.185Z,1013.32
2022-10-11T00:43:23.181Z,1013.30
2022-10-11T00:44:23.180Z,1013.29
2022-10-11T00:45:23.215Z,1013.28
2022-10-11T00:46:23.168Z,1013.27
2022-10-11T00:47:23.162Z,1013.29
2022-10-11T00:48:23.148Z,1013.36
2022-10-11T00:49:23.127Z,1013.36
2022-10-11T00:50:23.162Z,1013.39
2022-10-11T00:51:23.108Z,1013.37
2022-10-11T00:52:23.092Z,1013.41
2022-10-11T00:53:23.087Z,1013.38
2022-10-11T00:54:23.055Z,1013.44
2022-10-11T00:55:23.103Z,1013.44
2022-10-11T00:56:23.045Z,1013.44
2022-10-11T00:57:23.038Z,1013.47
2022-10-11T00:58:23.024Z,1013.45
2022-10-11T00:59:23.007Z,1013.47
2022-10-11T01:00:23.040Z,1013.50
2022-10-11T01:01:23.034Z,1013.49
2022-10-11T01:02:22.988Z,1013.53
2022-10-11T01:03:22.997Z,1013.52
2022-10-11T01:04:22.937Z,1013.55
2022-10-11T01:05:29.534Z,1013.54
2022-10-11T01:06:23.935Z,1013.53
2022-10-11T01:07:22.931Z,1013.57
2022-10-11T01:08:22.908Z,1013.62
2022-10-11T01:09:22.909Z,1013.66
2022-10-11T01:10:22.934Z,1013.66
2022-10-11T01:11:22.894Z,1013.68
2022-10-11T01:12:22.851Z,1013.70
2022-10-11T01:13:22.841Z,1013.70
2022-10-11T01:14:22.828Z,1013.73
2022-10-11T01:15:22.881Z,1013.80
2022-10-11T01:16:22.831Z,1013.77
2022-10-11T01:17:22.811Z,1013.80
2022-10-11T01:18:22.806Z,1013.80
2022-10-11T01:19:22.793Z,1013.85
2022-10-11T01:20:22.822Z,1013.84
2022-10-11T01:21:22.778Z,1013.86
2022-10-11T01:22:22.743Z,1013.87
2022-10-11T01:23:22.753Z,1013.86
2022-10-11T01:24:22.724Z,1013.89
2022-10-11T01:25:22.769Z,1013.90
2022-10-11T01:26:22.713Z,1013.85
2022-10-11T01:27:22.702Z,1013.84
2022-10-11T01:28:22.732Z,1013.94
2022-10-11T01:29:22.692Z,1013.94
2022-10-11T01:30:22.721Z,1013.97
2022-10-11T01:31:22.647Z,1013.97
2022-10-11T01:32:22.643Z,1013.99
2022-10-11T01:33:22.637Z,1013.99
2022-10-11T01:34:22.627Z,1014.01
2022-10-11T01:35:22.660Z,1014.09
2022-10-11T01:36:22.615Z,1014.08
2022-10-11T01:37:22.580Z,1014.07
2022-10-11T01:38:22.587Z,1014.14
2022-10-11T01:39:22.561Z,1014.12
2022-10-11T01:40:22.599Z,1014.08
2022-10-11T01:41:22.555Z,1014.16
2022-10-11T01:42:22.519Z,1014.12
2022-10-11T01:43:22.505Z,1014.20
2022-10-11T01:44:22.524Z,1014.19
2022-10-11T01:45:22.542Z,1014.18
2022-10-11T01:46:22.480Z,1014.17
2022-10-11T01:47:22.486Z,1014.21
2022-10-11T01:48:22.479Z,1014.23
2022-10-11T01:49:22.490Z,1014.23
2022-10-11T01:50:22.498Z,1014.26
2022-10-11T01:51:22.444Z,1014.28
2022-10-11T01:52:22.423Z,1014.32
2022-10-11T01:53:22.408Z,1014.30
2022-10-11T01:54:22.417Z,1014.33
2022-10-11T01:55:22.443Z,1014.35
2022-10-11T01:56:22.383Z,1014.37
2022-10-11T01:57:22.368Z,1014.39
2022-10-11T01:58:22.366Z,1014.37
2022-10-11T01:59:22.349Z,1014.38
2022-10-11T02:00:22.405Z,1014.44
2022-10-11T02:01:22.383Z,1014.44
2022-10-11T02:02:22.304Z,1014.53
2022-10-11T02:03:22.337Z,1014.49
2022-10-11T02:04:22.286Z,1014.53
2022-10-11T02:05:22.315Z,1014.50
2022-10-11T02:06:22.266Z,1014.57
2022-10-11T02:07:22.266Z,1014.57
2022-10-11T02:08:22.249Z,1014.59
2022-10-11T02:09:22.249Z,1014.62
2022-10-11T02:10:22.284Z,1014.60
2022-10-11T02:11:22.211Z,1014.63
2022-10-11T02:12:22.191Z,1014.64
2022-10-11T02:13:22.181Z,1014.68
2022-10-11T02:14:22.169Z,1014.65
2022-10-11T02:15:22.225Z,1014.69
2022-10-11T02:16:22.163Z,1014.70
2022-10-11T02:17:22.148Z,1014.73
2022-10-11T02:18:22.132Z,1014.72
2022-10-11T02:19:22.127Z,1014.75
2022-10-11T02:20:22.156Z,1014.75
2022-10-11T02:21:22.116Z,1014.80
2022-10-11T02:22:22.081Z,1014.77
2022-10-11T02:23:22.085Z,1014.81
2022-10-11T02:24:22.065Z,1014.83
2022-10-11T02:25:22.110Z,1014.84
2022-10-11T02:26:22.056Z,1014.83
2022-10-11T02:27:22.045Z,1014.80
2022-10-11T02:28:22.062Z,1014.82
2022-10-11T02:29:22.033Z,1014.85
2022-10-11T02:30:22.043Z,1014.82
2022-10-11T02:31:22.023Z,1014.84
2022-10-11T02:32:21.992Z,1014.87
2022-10-11T02:33:21.966Z,1014.83
2022-10-11T02:34:21.962Z,1014.87
2022-10-11T02:35:22.003Z,1014.85
2022-10-11T02:36:21.955Z,1014.90
2022-10-11T02:37:21.937Z,1014.91
2022-10-11T02:38:21.931Z,1014.89
2022-10-11T02:39:21.912Z,1014.95
2022-10-11T02:40:21.940Z,1014.94
2022-10-11T02:41:21.866Z,1014.96
2022-10-11T02:42:21.852Z,1014.96
2022-10-11T02:43:21.841Z,1014.92
2022-10-11T02:44:21.834Z,1014.98
2022-10-11T02:45:21.882Z,1014.98
2022-10-11T02:46:21.821Z,1014.97
2022-10-11T02:47:21.807Z,1014.98
2022-10-11T02:48:21.812Z,1014.96
2022-10-11T02:49:21.793Z,1015.00
2022-10-11T02:50:21.824Z,1015.00
2022-10-11T02:51:21.767Z,1014.97
2022-10-11T02:52:21.759Z,1015.05
2022-10-11T02:53:21.746Z,1015.05
2022-10-11T02:54:21.721Z,1015.03
2022-10-11T02:55:21.764Z,1015.07
2022-10-11T02:56:21.700Z,1015.07
2022-10-11T02:57:21.710Z,1015.05
2022-10-11T02:58:21.691Z,1015.08
2022-10-11T02:59:21.689Z,1015.09
2022-10-11T03:00:21.680Z,1015.06
2022-10-11T03:01:21.731Z,1015.11
2022-10-11T03:02:21.656Z,1015.10
2022-10-11T03:03:21.627Z,1015.16
2022-10-11T03:04:21.626Z,1015.16
2022-10-11T03:05:21.605Z,1015.16
2022-10-11T03:06:21.652Z,1015.16
2022-10-11T03:07:21.579Z,1015.21
2022-10-11T03:08:21.564Z,1015.22
2022-10-11T03:09:21.552Z,1015.26
2022-10-11T03:10:21.541Z,1015.28
2022-10-11T03:11:21.589Z,1015.24
2022-10-11T03:12:21.515Z,1015.26
2022-10-11T03:13:21.502Z,1015.29
2022-10-11T03:14:21.488Z,1015.29
2022-10-11T03:15:21.486Z,1015.26
2022-10-11T03:16:21.524Z,1015.28
2022-10-11T03:17:36.286Z,1015.30
2022-10-11T03:18:22.483Z,1015.32
2022-10-11T03:19:21.438Z,1015.32
2022-10-11T03:20:21.433Z,1015.36
2022-10-11T03:21:21.461Z,1015.35
2022-10-11T03:22:21.407Z,1015.39
2022-10-11T03:23:21.400Z,1015.39
2022-10-11T03:24:21.392Z,1015.43
2022-10-11T03:25:21.370Z,1015.43
2022-10-11T03:26:21.416Z,1015.50
2022-10-11T03:27:21.364Z,1015.49
2022-10-11T03:28:21.401Z,1015.51
2022-10-11T03:29:21.340Z,1015.51
2022-10-11T03:30:21.320Z,1015.52
2022-10-11T03:31:21.360Z,1015.57
2022-10-11T03:32:21.339Z,1015.59
2022-10-11T03:33:21.275Z,1015.61
2022-10-11T03:34:21.283Z,1015.63
2022-10-11T03:35:21.269Z,1015.64
2022-10-11T03:36:21.304Z,1015.66
2022-10-11T03:37:21.238Z,1015.65
2022-10-11T03:38:21.235Z,1015.62
2022-10-11T03:39:21.222Z,1015.63
2022-10-11T03:40:21.217Z,1015.68
2022-10-11T03:41:21.242Z,1015.67
2022-10-11T03:42:21.195Z,1015.73
2022-10-11T03:43:21.171Z,1015.72
2022-10-11T03:44:21.152Z,1015.70
2022-10-11T03:45:21.143Z,1015.76
2022-10-11T03:46:21.181Z,1015.78
2022-10-11T03:47:21.123Z,1015.80
2022-10-11T03:48:21.128Z,1015.83
2022-10-11T03:49:21.101Z,1015.84
2022-10-11T03:50:21.099Z,1015.87
2022-10-11T03:51:21.119Z,1015.83
2022-10-11T03:52:21.072Z,1015.84
2022-10-11T03:53:21.053Z,1015.87
2022-10-11T03:54:21.053Z,1015.79
2022-10-11T03:55:21.031Z,1015.84
2022-10-11T03:56:21.062Z,1015.84
2022-10-11T03:57:21.022Z,1015.89
2022-10-11T03:58:21.004Z,1015.87
2022-10-11T03:59:20.986Z,1015.91
2022-10-11T04:00:20.971Z,1015.88
2022-10-11T04:01:21.036Z,1015.90
2022-10-11T04:02:20.961Z,1015.87
2022-10-11T04:03:20.939Z,1015.95
2022-10-11T04:04:20.933Z,1015.91
2022-10-11T04:05:20.919Z,1015.93
2022-10-11T04:06:20.958Z,1015.95
2022-10-11T04:07:20.895Z,1015.98
2022-10-11T04:08:20.890Z,1015.98
2022-10-11T04:09:20.879Z,1015.96
2022-10-11T04:10:20.866Z,1016.02
2022-10-11T04:11:20.894Z,1015.99
2022-10-11T04:12:20.839Z,1015.95
2022-10-11T04:13:20.841Z,1015.97
2022-10-11T04:14:20.825Z,1015.99
2022-10-11T04:15:20.829Z,1016.01
2022-10-11T04:16:20.843Z,1016.01
2022-10-11T04:17:20.782Z,1016.03
2022-10-11T04:18:20.769Z,1016.03
2022-10-11T04:19:20.761Z,1016.06
2022-10-11T04:20:20.756Z,1016.01
2022-10-11T04:21:20.792Z,1016.01
2022-10-11T04:22:20.735Z,1016.08
2022-10-11T04:23:20.726Z,1016.08
2022-10-11T04:24:20.710Z,1016.13
2022-10-11T04:25:20.704Z,1016.10
2022-10-11T04:26:20.728Z,1016.08
2022-10-11T04:27:20.682Z,1016.10
2022-10-11T04:28:20.698Z,1016.15
2022-10-11T04:29:20.651Z,1016.19
2022-10-11T04:30:20.646Z,1016.13
2022-10-11T04:31:20.679Z,1016.12
2022-10-11T04:32:20.636Z,1016.15
2022-10-11T04:33:20.598Z,1016.15
2022-10-11T04:34:20.610Z,1016.15
2022-10-11T04:35:20.582Z,1016.15
2022-10-11T04:36:20.752Z,1016.19
2022-10-11T04:37:20.560Z,1016.12
2022-10-11T04:38:20.563Z,1016.16
2022-10-11T04:39:20.537Z,1016.17
2022-10-11T04:40:20.533Z,1016.19
2022-10-11T04:41:20.563Z,1016.21
2022-10-11T04:42:20.554Z,1016.25
2022-10-11T04:43:20.505Z,1016.24
2022-10-11T04:44:20.483Z,1016.25
2022-10-11T04:45:20.473Z,1016.26
2022-10-11T04:46:20.510Z,1016.33
2022-10-11T04:47:20.448Z,1016.39
2022-10-11T04:48:20.435Z,1016.35
2022-10-11T04:49:20.427Z,1016.37
2022-10-11T04:50:20.411Z,1016.37
2022-10-11T04:51:20.457Z,1016.40
2022-10-11T04:52:25.376Z,1016.40
2022-10-11T04:53:21.384Z,1016.38
2022-10-11T04:54:20.376Z,1016.41
2022-10-11T04:55:20.364Z,1016.40
2022-10-11T04:56:20.396Z,1016.41
2022-10-11T04:57:20.333Z,1016.42
2022-10-11T04:58:20.328Z,1016.48
2022-10-11T04:59:20.312Z,1016.47
2022-10-11T05:00:20.306Z,1016.49
2022-10-11T05:01:20.342Z,1016.44
2022-10-11T05:02:20.372Z,1016.51
2022-10-11T05:03:20.268Z,1016.53
2022-10-11T05:04:20.272Z,1016.52
2022-10-11T05:05:20.243Z,1016.56
2022-10-11T05:06:20.289Z,1016.57
2022-10-11T05:07:20.250Z,1016.57
2022-10-11T05:08:20.226Z,1016.60
2022-10-11T05:09:20.216Z,1016.56
2022-10-11T05:10:20.188Z,1016.55
2022-10-11T05:11:20.227Z,1016.60
2022-10-11T05:12:20.166Z,1016.63
2022-10-11T05:13:20.154Z,1016.61
2022-10-11T05:14:20.146Z,1016.64
2022-10-11T05:15:20.134Z,1016.65
2022-10-11T05:16:20.177Z,1016.67
2022-10-11T05:17:20.241Z,1016.66
2022-10-11T05:18:20.109Z,1016.68
2022-10-11T05:19:20.087Z,1016.69
2022-10-11T05:20:20.071Z,1016.72
2022-10-11T05:21:20.107Z,1016.74
2022-10-11T05:22:20.068Z,1016.71
2022-10-11T05:23:20.034Z,1016.76
2022-10-11T05:24:20.035Z,1016.75
2022-10-11T05:25:20.021Z,1016.79
2022-10-11T05:26:20.051Z,1016.81
2022-10-11T05:27:20.007Z,1016.82
2022-10-11T05:28:20.090Z,1016.87
2022-10-11T05:29:19.976Z,1016.88
2022-10-11T05:30:19.966Z,1016.89
2022-10-11T05:31:20.007Z,1016.92
2022-10-11T05:32:19.972Z,1016.93
2022-10-11T05:33:19.927Z,1016.93
2022-10-11T05:34:20.010Z,1016.87
2022-10-11T05:35:19.913Z,1016.95
2022-10-11T05:36:19.962Z,1016.98
2022-10-11T05:37:19.891Z,1017.02
2022-10-11T05:38:19.873Z,1016.98
2022-10-11T05:39:19.865Z,1016.99
2022-10-11T05:40:19.860Z,1016.99
2022-10-11T05:41:19.893Z,1017.00
2022-10-11T05:42:19.834Z,1017.02
2022-10-11T05:43:19.832Z,1017.05
2022-10-11T05:44:19.810Z,1017.07
2022-10-11T05:45:19.800Z,1017.10
2022-10-11T05:46:19.830Z,1017.09
2022-10-11T05:47:19.767Z,1017.07
2022-10-11T05:48:19.865Z,1017.07
2022-10-11T05:49:19.797Z,1017.11
2022-10-11T05:50:24.183Z,1017.13
2022-10-11T05:51:19.772Z,1017.14
2022-10-11T05:52:19.724Z,1017.13
2022-10-11T05:53:19.698Z,1017.19
2022-10-11T05:54:19.711Z,1017.15
2022-10-11T05:55:19.686Z,1017.19
2022-10-11T05:56:19.722Z,1017.21
2022-10-11T05:57:19.668Z,1017.29
2022-10-11T05:58:19.750Z,1017.28
2022-10-11T05:59:19.634Z,1017.31
2022-10-11T06:00:19.627Z,1017.33
2022-10-11T06:01:19.704Z,1017.40
2022-10-11T06:02:19.604Z,1017.37
2022-10-11T06:03:19.596Z,1017.35
2022-10-11T06:04:19.595Z,1017.38
2022-10-11T06:05:19.568Z,1017.38
2022-10-11T06:06:19.618Z,1017.40
2022-10-11T06:07:19.557Z,1017.42
2022-10-11T06:08:19.546Z,1017.44
2022-10-11T06:09:19.524Z,1017.39
2022-10-11T06:10:19.510Z,1017.46
2022-10-11T06:11:19.541Z,1017.48
2022-10-11T06:12:19.496Z,1017.49
2022-10-11T06:13:19.476Z,1017.52
2022-10-11T06:14:19.498Z,1017.54
2022-10-11T06:15:19.465Z,1017.56
2022-10-11T06:16:19.490Z,1017.52
2022-10-11T06:17:19.431Z,1017.56
2022-10-11T06:18:19.515Z,1017.57
2022-10-11T06:19:19.409Z,1017.61
2022-10-11T06:20:19.413Z,1017.61
2022-10-11T06:21:19.436Z,1017.59
2022-10-11T06:22:19.369Z,1017.65
2022-10-11T06:23:19.357Z,1017.66
2022-10-11T06:24:19.357Z,1017.70
2022-10-11T06:25:19.356Z,1017.73
2022-10-11T06:26:19.376Z,1017.73
2022-10-11T06:27:19.324Z,1017.72
2022-10-11T06:28:19.367Z,1017.75
2022-10-11T06:29:19.298Z,1017.79
2022-10-11T06:30:19.296Z,1017.79
2022-10-11T06:31:19.322Z,1017.84
2022-10-11T06:32:19.266Z,1017.84
2022-10-11T06:33:19.270Z,1017.83
2022-10-11T06:34:19.255Z,1017.84
2022-10-11T06:35:19.248Z,1017.87
2022-10-11T06:36:19.281Z,1017.86
2022-10-11T06:37:19.223Z,1017.86
2022-10-11T06:38:19.208Z,1017.85
2022-10-11T06:39:19.181Z,1017.84
2022-10-11T06:40:19.178Z,1017.81
2022-10-11T06:41:19.222Z,1017.86
2022-10-11T06:42:19.158Z,1017.89
2022-10-11T06:43:19.143Z,1017.87
2022-10-11T06:44:19.148Z,1017.86
2022-10-11T06:45:19.138Z,1017.89
2022-10-11T06:46:19.183Z,1017.86
2022-10-11T06:47:19.114Z,1017.84
2022-10-11T06:48:19.093Z,1017.91
2022-10-11T06:49:23.097Z,1017.91
2022-10-11T06:50:34.880Z,1017.94
2022-10-11T06:51:20.120Z,1017.93
2022-10-11T06:52:19.056Z,1017.97
2022-10-11T06:53:19.018Z,1017.93
2022-10-11T06:54:19.032Z,1017.97
2022-10-11T06:55:19.015Z,1017.97
2022-10-11T06:56:19.063Z,1018.00
2022-10-11T06:57:18.986Z,1018.00
2022-10-11T06:58:18.979Z,1018.00
2022-10-11T06:59:19.007Z,1017.98
2022-10-11T07:00:18.977Z,1018.01
2022-10-11T07:01:19.187Z,1018.01
2022-10-11T07:02:18.931Z,1018.03
2022-10-11T07:03:18.944Z,1018.08
2022-10-11T07:04:18.912Z,1018.06
2022-10-11T07:05:18.900Z,1018.03
2022-10-11T07:06:18.932Z,1018.06
2022-10-11T07:07:18.884Z,1018.01
2022-10-11T07:08:18.867Z,1018.05
2022-10-11T07:09:18.868Z,1018.08
2022-10-11T07:10:18.838Z,1018.07
2022-10-11T07:11:18.902Z,1018.10
2022-10-11T07:12:18.828Z,1018.11
2022-10-11T07:13:18.817Z,1018.11
2022-10-11T07:14:18.804Z,1018.13
2022-10-11T07:15:18.792Z,1018.14
2022-10-11T07:16:18.820Z,1018.13
2022-10-11T07:17:18.786Z,1018.11
2022-10-11T07:18:18.749Z,1018.19
2022-10-11T07:19:18.744Z,1018.17
2022-10-11T07:20:18.736Z,1018.17
2022-10-11T07:21:18.752Z,1018.23
2022-10-11T07:22:18.692Z,1018.20
2022-10-11T07:23:18.696Z,1018.21
2022-10-11T07:24:18.715Z,1018.18
2022-10-11T07:25:18.724Z,1018.17
2022-10-11T07:26:18.683Z,1018.19
2022-10-11T07:27:18.658Z,1018.22
2022-10-11T07:28:18.642Z,1018.20
2022-10-11T07:29:18.640Z,1018.22
2022-10-11T07:30:18.614Z,1018.21
2022-10-11T07:31:18.664Z,1018.24
2022-10-11T07:32:18.594Z,1018.27
2022-10-11T07:33:18.588Z,1018.32
2022-10-11T07:34:18.577Z,1018.29
2022-10-11T07:35:18.558Z,1018.29
2022-10-11T07:36:18.585Z,1018.33
2022-10-11T07:37:18.576Z,1018.34
2022-10-11T07:38:18.548Z,1018.32
2022-10-11T07:39:18.506Z,1018.32
2022-10-11T07:40:18.488Z,1018.33
2022-10-11T07:41:18.563Z,1018.30
2022-10-11T07:42:18.482Z,1018.33
2022-10-11T07:43:18.469Z,1018.36
2022-10-11T07:44:18.446Z,1018.38
2022-10-11T07:45:18.475Z,1018.34
2022-10-11T07:46:18.483Z,1018.38
2022-10-11T07:47:18.416Z,1018.43
2022-10-11T07:48:18.447Z,1018.37
2022-10-11T07:49:18.425Z,1018.37
2022-10-11T07:50:18.393Z,1018.40
2022-10-11T07:51:18.366Z,1018.42
2022-10-11T07:52:18.403Z,1018.39
2022-10-11T07:53:18.348Z,1018.43
2022-10-11T07:54:18.339Z,1018.41
2022-10-11T07:55:18.337Z,1018.45
2022-10-11T07:56:18.320Z,1018.44
2022-10-11T07:57:18.353Z,1018.44
2022-10-11T07:58:18.288Z,1018.46
2022-10-11T07:59:18.305Z,1018.48
2022-10-11T08:00:18.277Z,1018.43
2022-10-11T08:01:18.338Z,1018.44
2022-10-11T08:02:18.292Z,1018.47
2022-10-11T08:03:18.229Z,1018.47
2022-10-11T08:04:18.258Z,1018.44
2022-10-11T08:05:18.248Z,1018.45
2022-10-11T08:06:18.232Z,1018.51
2022-10-11T08:07:18.248Z,1018.52
2022-10-11T08:08:18.204Z,1018.49
2022-10-11T08:09:18.186Z,1018.55
2022-10-11T08:10:18.164Z,1018.56
2022-10-11T08:11:18.178Z,1018.58
2022-10-11T08:12:18.186Z,1018.60
2022-10-11T08:13:18.137Z,1018.56
2022-10-11T08:14:18.122Z,1018.56
2022-10-11T08:15:18.117Z,1018.51
2022-10-11T08:16:18.082Z,1018.52
2022-10-11T08:17:18.126Z,1018.51
2022-10-11T08:18:18.100Z,1018.57
2022-10-11T08:19:18.073Z,1018.50
2022-10-11T08:20:18.024Z,1018.46
2022-10-11T08:21:18.069Z,1018.53
2022-10-11T08:22:18.064Z,1018.54
2022-10-11T08:23:18.025Z,1018.52
2022-10-11T08:24:17.994Z,1018.54
2022-10-11T08:25:18.000Z,1018.53
2022-10-11T08:26:17.970Z,1018.54
2022-10-11T08:27:18.015Z,1018.52
2022-10-11T08:28:18.203Z,1018.53
2022-10-11T08:29:17.956Z,1018.51
2022-10-11T08:30:17.941Z,1018.57
2022-10-11T08:31:17.937Z,1018.50
2022-10-11T08:32:17.945Z,1018.57
2022-10-11T08:33:17.898Z,1018.58
2022-10-11T08:34:17.891Z,1018.61
2022-10-11T08:35:17.874Z,1018.59
2022-10-11T08:36:17.859Z,1018.58
2022-10-11T08:37:17.906Z,1018.64
2022-10-11T08:38:17.831Z,1018.63
2022-10-11T08:39:17.942Z,1018.63
2022-10-11T08:40:17.822Z,1018.63
2022-10-11T08:41:17.831Z,1018.61
2022-10-11T08:42:17.862Z,1018.65
2022-10-11T08:43:17.813Z,1018.60
2022-10-11T08:44:17.780Z,1018.65
2022-10-11T08:45:17.787Z,1018.69
2022-10-11T08:46:17.757Z,1018.60
2022-10-11T08:47:17.803Z,1018.60
2022-10-11T08:48:17.742Z,1018.59
2022-10-11T08:49:17.712Z,1018.57
2022-10-11T08:50:17.699Z,1018.53
2022-10-11T08:51:17.701Z,1018.52
2022-10-11T08:52:17.714Z,1018.56
2022-10-11T08:53:17.689Z,1018.56
2022-10-11T08:54:17.663Z,1018.50
2022-10-11T08:55:17.660Z,1018.54
2022-10-11T08:56:17.642Z,1018.57
2022-10-11T08:57:17.673Z,1018.60
2022-10-11T08:58:17.654Z,1018.60
2022-10-11T08:59:17.626Z,1018.63
2022-10-11T09:00:17.617Z,1018.58
2022-10-11T09:01:17.655Z,1018.63
2022-10-11T09:02:17.610Z,1018.64
2022-10-11T09:03:17.556Z,1018.64
2022-10-11T09:04:17.541Z,1018.57
2022-10-11T09:05:17.554Z,1018.60
2022-10-11T09:06:17.505Z,1018.64
2022-10-11T09:07:17.572Z,1018.59
2022-10-11T09:08:17.524Z,1018.66
2022-10-11T09:09:17.509Z,1018.66
2022-10-11T09:10:17.507Z,1018.65
2022-10-11T09:11:17.497Z,1018.65
2022-10-11T09:12:17.522Z,1018.70
2022-10-11T09:13:17.459Z,1018.67
2022-10-11T09:14:17.431Z,1018.65
2022-10-11T09:15:17.453Z,1018.70
2022-10-11T09:16:17.414Z,1018.68
2022-10-11T09:17:17.458Z,1018.66
2022-10-11T09:18:17.392Z,1018.66
2022-10-11T09:19:17.376Z,1018.70
2022-10-11T09:20:17.365Z,1018.67
2022-10-11T09:21:17.356Z,1018.67
2022-10-11T09:22:17.393Z,1018.66
2022-10-11T09:23:17.344Z,1018.76
2022-10-11T09:24:17.363Z,1018.67
2022-10-11T09:25:17.315Z,1018.68
2022-10-11T09:26:17.300Z,1018.66
2022-10-11T09:27:17.329Z,1018.64
2022-10-11T09:28:17.358Z,1018.59
2022-10-11T09:29:17.282Z,1018.60
2022-10-11T09:30:17.259Z,1018.66
2022-10-11T09:31:17.271Z,1018.68
2022-10-11T09:32:17.304Z,1018.66
2022-10-11T09:33:17.224Z,1018.65
2022-10-11T09:34:17.222Z,1018.68
2022-10-11T09:35:17.202Z,1018.61
2022-10-11T09:36:17.184Z,1018.60
2022-10-11T09:37:17.236Z,1018.65
2022-10-11T09:38:17.175Z,1018.66
2022-10-11T09:39:17.156Z,1018.69
2022-10-11T09:40:17.156Z,1018.68
2022-10-11T09:41:17.151Z,1018.71
2022-10-11T09:42:17.172Z,1018.69
2022-10-11T09:43:17.115Z,1018.65
2022-10-11T09:44:17.126Z,1018.69
2022-10-11T09:45:17.121Z,1018.65
2022-10-11T09:46:17.117Z,1018.63
2022-10-11T09:47:17.090Z,1018.72
2022-10-11T09:48:17.051Z,1018.68
2022-10-11T09:49:17.032Z,1018.65
2022-10-11T09:50:17.015Z,1018.70
2022-10-11T09:51:17.054Z,1018.65
2022-10-11T09:52:17.018Z,1018.67
2022-10-11T09:53:17.015Z,1018.61
2022-10-11T09:54:17.005Z,1018.68
2022-10-11T09:55:19.726Z,1018.72
2022-10-11T09:56:17.022Z,1018.72
2022-10-11T09:57:16.952Z,1018.73
2022-10-11T09:58:20.466Z,1018.65
2022-10-11T09:59:16.992Z,1018.79
2022-10-11T10:00:16.932Z,1018.76
2022-10-11T10:01:17.000Z,1018.72
2022-10-11T10:02:16.915Z,1018.73
2022-10-11T10:03:17.675Z,1018.74
2022-10-11T10:04:16.881Z,1018.81
2022-10-11T10:05:16.885Z,1018.74
2022-10-11T10:06:16.918Z,1018.72
2022-10-11T10:07:16.836Z,1018.71
2022-10-11T10:08:16.851Z,1018.74
2022-10-11T10:09:16.822Z,1018.70
2022-10-11T10:10:16.866Z,1018.72
2022-10-11T10:11:16.867Z,1018.75
2022-10-11T10:12:16.786Z,1018.77
2022-10-11T10:13:16.781Z,1018.76
2022-10-11T10:14:16.800Z,1018.76
2022-10-11T10:15:16.787Z,1018.77
2022-10-11T10:16:16.795Z,1018.82
2022-10-11T10:17:16.765Z,1018.78
2022-10-11T10:18:16.712Z,1018.81
2022-10-11T10:19:16.699Z,1018.83
2022-10-11T10:20:16.713Z,1018.86
2022-10-11T10:21:16.735Z,1018.83
2022-10-11T10:22:16.703Z,1018.87
2022-10-11T10:23:16.696Z,1018.83
2022-10-11T10:24:16.683Z,1018.84
2022-10-11T10:25:16.635Z,1018.83
2022-10-11T10:26:16.655Z,1018.79
2022-10-11T10:27:16.670Z,1018.75
2022-10-11T10:28:16.671Z,1018.70
2022-10-11T10:29:16.603Z,1018.72
2022-10-11T10:30:16.617Z,1018.73
2022-10-11T10:31:16.562Z,1018.82
2022-10-11T10:32:16.607Z,1018.85
2022-10-11T10:33:16.569Z,1018.84
2022-10-11T10:34:16.556Z,1018.86
2022-10-11T10:35:16.548Z,1018.81
2022-10-11T10:36:16.546Z,1018.73
2022-10-11T10:37:16.575Z,1018.84
2022-10-11T10:38:16.495Z,1018.76
2022-10-11T10:39:16.485Z,1018.81
2022-10-11T10:40:16.586Z,1018.84
2022-10-11T10:41:16.472Z,1018.86
2022-10-11T10:42:16.484Z,1018.86
2022-10-11T10:43:16.447Z,1018.84
2022-10-11T10:44:16.442Z,1018.87
2022-10-11T10:45:21.139Z,1018.83
2022-10-11T10:46:17.422Z,1018.83
2022-10-11T10:47:16.454Z,1018.88
2022-10-11T10:48:16.373Z,1018.86
2022-10-11T10:49:41.587Z,1018.81
2022-10-11T10:50:17.353Z,1018.88
2022-10-11T10:51:16.355Z,1018.78
2022-10-11T10:52:16.403Z,1018.82
2022-10-11T10:53:16.336Z,1018.78
2022-10-11T10:54:16.320Z,1018.82
2022-10-11T10:55:16.320Z,1018.84
2022-10-11T10:56:16.272Z,1018.84
2022-10-11T10:57:16.353Z,1018.81
2022-10-11T10:58:18.813Z,1018.80
2022-10-11T10:59:16.269Z,1018.82
2022-10-11T11:00:16.280Z,1018.88
2022-10-11T11:01:16.306Z,1018.88
2022-10-11T11:02:39.252Z,1018.89
2022-10-11T11:03:17.241Z,1018.86
2022-10-11T11:04:16.216Z,1018.75
2022-10-11T11:05:16.195Z,1018.77
2022-10-11T11:06:16.182Z,1018.82
2022-10-11T11:07:16.216Z,1018.83
2022-10-11T11:08:16.183Z,1018.82
2022-10-11T11:09:16.156Z,1018.79
2022-10-11T11:10:16.144Z,1018.78
2022-10-11T11:11:16.139Z,1018.77
2022-10-11T11:12:16.164Z,1018.78
2022-10-11T11:13:16.123Z,1018.78
2022-10-11T11:14:16.121Z,1018.76
2022-10-11T11:15:16.088Z,1018.78
2022-10-11T11:16:16.068Z,1018.74
2022-10-11T11:17:16.119Z,1018.83
2022-10-11T11:18:16.042Z,1018.83
2022-10-11T11:19:16.034Z,1018.75
2022-10-11T11:20:16.017Z,1018.70
2022-10-11T11:21:16.084Z,1018.71
2022-10-11T11:22:16.060Z,1018.69
2022-10-11T11:23:16.021Z,1018.70
2022-10-11T11:24:15.973Z,1018.78
2022-10-11T11:25:15.981Z,1018.77
2022-10-11T11:26:15.969Z,1018.75
2022-10-11T11:27:15.996Z,1018.72
2022-10-11T11:28:15.982Z,1018.73
2022-10-11T11:29:15.914Z,1018.76
2022-10-11T11:30:15.923Z,1018.77
2022-10-11T11:31:15.902Z,1018.74
2022-10-11T11:32:15.960Z,1018.74
2022-10-11T11:33:15.888Z,1018.74
2022-10-11T11:34:15.889Z,1018.74
2022-10-11T11:35:15.862Z,1018.78
2022-10-11T11:36:15.874Z,1018.80
2022-10-11T11:37:15.882Z,1018.75
2022-10-11T11:38:15.852Z,1018.70
2022-10-11T11:39:15.827Z,1018.86
2022-10-11T11:40:15.803Z,1018.83
2022-10-11T11:41:15.827Z,1018.80
2022-10-11T11:42:15.848Z,1018.80
2022-10-11T11:43:15.783Z,1018.78
2022-10-11T11:44:15.761Z,1018.78
2022-10-11T11:45:15.741Z,1018.83
2022-10-11T11:46:15.739Z,1018.73
2022-10-11T11:47:15.767Z,1018.77
2022-10-11T11:48:15.701Z,1018.76
2022-10-11T11:49:15.698Z,1018.70
2022-10-11T11:50:15.740Z,1018.74
2022-10-11T11:51:15.684Z,1018.75
2022-10-11T11:52:15.718Z,1018.77
2022-10-11T11:53:15.660Z,1018.75
2022-10-11T11:54:15.651Z,1018.67
2022-10-11T11:55:15.650Z,1018.68
2022-10-11T11:56:15.625Z,1018.70
2022-10-11T11:57:15.684Z,1018.64
2022-10-11T11:58:15.614Z,1018.62
2022-10-11T11:59:15.569Z,1018.63
2022-10-11T12:00:15.597Z,1018.64
2022-10-11T12:01:15.582Z,1018.62
2022-10-11T12:02:15.697Z,1018.66
2022-10-11T12:03:15.571Z,1018.63
2022-10-11T12:04:15.544Z,1018.62
2022-10-11T12:05:15.520Z,1018.57